createdAt,value
2023-03-25T00:01:12.831Z,15.50
2023-03-25T00:03:50.292Z,15.85
2023-03-25T00:06:22.812Z,16.05
2023-03-25T00:08:56.437Z,15.23
2023-03-25T00:11:29.238Z,15.03
2023-03-25T00:14:01.737Z,16.05
2023-03-25T00:16:34.453Z,14.98
2023-03-25T00:19:07.072Z,14.75
2023-03-25T00:21:40.143Z,15.58
2023-03-25T00:26:48.805Z,14.13
2023-03-25T00:29:21.954Z,14.38
2023-03-25T00:31:54.525Z,14.85
2023-03-25T00:34:27.572Z,14.15
2023-03-25T00:37:00.170Z,14.43
2023-03-25T00:39:33.017Z,15.35
2023-03-25T00:42:06.624Z,15.03
2023-03-25T00:44:39.830Z,15.50
2023-03-25T00:47:13.978Z,16.10
2023-03-25T00:49:46.969Z,16.80
2023-03-25T00:52:21.860Z,16.23
2023-03-25T00:54:54.353Z,16.07
2023-03-25T00:57:26.898Z,16.50
2023-03-25T01:00:00.297Z,16.37
2023-03-25T01:02:34.085Z,16.80
2023-03-25T01:05:07.971Z,16.13
2023-03-25T01:07:42.087Z,17.98
2023-03-25T01:10:14.926Z,16.65
2023-03-25T01:12:47.590Z,16.55
2023-03-25T01:15:20.455Z,17.17
2023-03-25T01:17:55.192Z,17.65
2023-03-25T01:20:29.068Z,17.52
2023-03-25T01:23:01.825Z,16.95
2023-03-25T01:25:34.843Z,15.93
2023-03-25T01:28:07.947Z,16.00
2023-03-25T01:30:41.041Z,16.62
2023-03-25T01:33:14.180Z,16.73
2023-03-25T01:35:47.997Z,16.85
2023-03-25T01:38:21.749Z,15.20
2023-03-25T01:40:54.684Z,15.63
2023-03-25T01:43:27.205Z,14.68
2023-03-25T01:46:00.009Z,14.85
2023-03-25T01:48:40.813Z,15.43
2023-03-25T01:51:17.997Z,14.85
2023-03-25T01:53:51.634Z,14.35
2023-03-25T01:56:44.683Z,15.50
2023-03-25T01:59:19.402Z,15.50
2023-03-25T02:01:52.070Z,14.95
2023-03-25T02:04:57.480Z,14.38
2023-03-25T02:07:31.199Z,14.63
2023-03-25T02:12:41.684Z,14.03
2023-03-25T02:15:16.654Z,13.62
2023-03-25T02:17:54.942Z,13.68
2023-03-25T02:20:52.086Z,14.43
2023-03-25T02:23:55.954Z,14.38
2023-03-25T02:26:49.784Z,15.28
2023-03-25T02:29:29.639Z,14.73
2023-03-25T02:32:29.665Z,13.93
2023-03-25T02:35:19.044Z,15.38
2023-03-25T02:38:30.737Z,14.55
2023-03-25T02:41:26.108Z,13.72
2023-03-25T02:44:08.140Z,15.48
2023-03-25T02:46:49.296Z,14.35
2023-03-25T02:49:30.977Z,14.30
2023-03-25T02:52:14.314Z,15.05
2023-03-25T02:54:47.771Z,15.53
2023-03-25T02:57:21.615Z,15.28
2023-03-25T03:00:00.111Z,15.05
2023-03-25T03:05:26.514Z,14.33
2023-03-25T03:08:25.290Z,15.43
2023-03-25T03:11:20.601Z,15.03
2023-03-25T03:14:14.041Z,14.73
2023-03-25T03:17:38.958Z,14.60
2023-03-25T03:20:16.357Z,21.85
2023-03-25T03:23:01.807Z,15.20
2023-03-25T03:25:50.739Z,15.10
2023-03-25T03:28:34.742Z,14.58
2023-03-25T03:31:15.687Z,14.70
2023-03-25T03:34:01.296Z,15.20
2023-03-25T03:36:37.873Z,15.32
2023-03-25T03:39:36.429Z,14.80
2023-03-25T03:42:25.029Z,16.40
2023-03-25T03:45:02.618Z,16.30
2023-03-25T03:47:39.787Z,16.17
2023-03-25T03:50:22.164Z,15.90
2023-03-25T03:53:03.194Z,16.60
2023-03-25T03:55:52.625Z,16.20
2023-03-25T03:58:33.586Z,16.32
2023-03-25T04:01:10.839Z,15.23
2023-03-25T04:03:51.143Z,16.45
2023-03-25T04:06:46.888Z,17.17
2023-03-25T04:09:28.324Z,16.20
2023-03-25T04:12:06.388Z,16.07
2023-03-25T04:14:40.086Z,16.57
2023-03-25T04:17:12.870Z,16.20
2023-03-25T04:19:47.066Z,16.07
2023-03-25T04:22:22.042Z,16.32
2023-03-25T04:24:56.368Z,16.60
2023-03-25T04:27:30.119Z,16.35
2023-03-25T04:30:05.142Z,16.20
2023-03-25T04:32:37.868Z,17.43
2023-03-25T04:35:11.816Z,16.57
2023-03-25T04:37:50.021Z,16.85
2023-03-25T04:40:24.456Z,17.45
2023-03-25T04:42:58.675Z,16.77
2023-03-25T04:45:32.866Z,18.00
2023-03-25T04:48:06.343Z,17.32
2023-03-25T04:50:39.655Z,17.53
2023-03-25T04:53:12.090Z,18.17
2023-03-25T04:55:46.937Z,17.05
2023-03-25T04:58:20.045Z,18.45
2023-03-25T05:00:54.147Z,18.73
2023-03-25T05:03:28.068Z,17.85
2023-03-25T05:06:00.871Z,17.73
2023-03-25T05:08:35.138Z,16.93
2023-03-25T05:11:08.111Z,17.00
2023-03-25T05:13:41.112Z,16.73
2023-03-25T05:16:13.666Z,17.92
2023-03-25T05:18:46.179Z,18.12
2023-03-25T05:21:19.261Z,17.52
2023-03-25T05:23:52.847Z,18.52
2023-03-25T05:26:26.105Z,18.70
2023-03-25T05:29:00.757Z,18.00
2023-03-25T05:31:33.554Z,18.35
2023-03-25T05:34:08.858Z,17.83
2023-03-25T05:36:41.977Z,17.90
2023-03-25T05:39:14.526Z,17.50
2023-03-25T05:41:47.054Z,18.40
2023-03-25T05:44:20.142Z,17.48
2023-03-25T05:46:53.054Z,17.98
2023-03-25T05:49:25.520Z,17.62
2023-03-25T05:52:00.305Z,18.37
2023-03-25T05:54:33.678Z,18.75
2023-03-25T05:57:07.447Z,17.42
2023-03-25T05:59:40.912Z,17.25
2023-03-25T06:02:33.512Z,16.53
2023-03-25T06:05:16.519Z,17.67
2023-03-25T06:07:50.022Z,16.73
2023-03-25T06:10:23.451Z,18.23
2023-03-25T06:12:56.186Z,17.32
2023-03-25T06:15:33.931Z,17.25
2023-03-25T06:18:07.748Z,17.80
2023-03-25T06:20:40.393Z,17.80
2023-03-25T06:23:13.460Z,18.35
2023-03-25T06:25:47.791Z,18.90
2023-03-25T06:28:21.562Z,19.02
2023-03-25T06:30:54.823Z,19.03
2023-03-25T06:33:43.283Z,18.52
2023-03-25T06:36:02.824Z,17.73
2023-03-25T06:38:36.073Z,18.40
2023-03-25T06:41:10.195Z,18.45
2023-03-25T06:43:44.663Z,18.90
2023-03-25T06:46:22.648Z,17.85
2023-03-25T06:49:06.214Z,18.87
2023-03-25T06:51:39.765Z,17.13
2023-03-25T06:54:12.796Z,17.32
2023-03-25T06:56:45.389Z,16.85
2023-03-25T06:59:17.882Z,18.35
2023-03-25T07:01:50.565Z,18.23
2023-03-25T07:04:23.436Z,17.85
2023-03-25T07:06:57.823Z,17.12
2023-03-25T07:09:30.401Z,17.67
2023-03-25T07:12:02.847Z,17.10
2023-03-25T07:14:35.960Z,17.48
2023-03-25T07:17:08.695Z,16.87
2023-03-25T07:19:43.737Z,16.90
2023-03-25T07:22:16.917Z,17.98
2023-03-25T07:24:49.859Z,16.73
2023-03-25T07:27:23.806Z,17.27
2023-03-25T07:32:31.511Z,17.45
2023-03-25T07:35:05.835Z,18.80
2023-03-25T07:37:38.461Z,18.05
2023-03-25T07:40:23.143Z,17.25
2023-03-25T07:42:56.627Z,17.67
2023-03-25T07:45:30.966Z,17.65
2023-03-25T07:48:05.892Z,17.20
2023-03-25T07:50:39.542Z,17.12
2023-03-25T07:53:11.976Z,17.87
2023-03-25T07:58:38.846Z,18.10
2023-03-25T08:01:11.422Z,18.02
2023-03-25T08:09:00.595Z,17.62
2023-03-25T08:11:34.417Z,18.52
2023-03-25T08:16:39.386Z,19.37
2023-03-25T08:19:11.852Z,19.75
2023-03-25T08:21:45.053Z,18.02
2023-03-25T08:24:18.031Z,18.67
2023-03-25T08:26:51.276Z,18.55
2023-03-25T08:29:24.774Z,19.17
2023-03-25T08:31:57.795Z,20.47
2023-03-25T08:34:32.880Z,18.67
2023-03-25T08:37:07.656Z,17.92
2023-03-25T08:39:42.365Z,19.10
2023-03-25T08:42:15.623Z,19.07
2023-03-25T08:44:48.130Z,19.27
2023-03-25T08:47:21.311Z,19.90
2023-03-25T08:49:54.438Z,19.77
2023-03-25T08:52:28.261Z,19.32
2023-03-25T08:55:01.177Z,19.85
2023-03-25T08:57:34.280Z,18.23
2023-03-25T09:00:12.926Z,21.00
2023-03-25T09:02:46.549Z,21.07
2023-03-25T09:05:20.148Z,22.02
2023-03-25T09:07:53.362Z,21.33
2023-03-25T09:10:25.959Z,22.55
2023-03-25T09:12:59.268Z,20.48
2023-03-25T09:15:32.316Z,21.40
2023-03-25T09:18:06.027Z,21.23
2023-03-25T09:20:39.385Z,22.93
2023-03-25T09:23:12.283Z,20.57
2023-03-25T09:25:46.404Z,21.73
2023-03-25T09:28:19.692Z,21.05
2023-03-25T09:30:52.307Z,21.23
2023-03-25T09:33:27.335Z,19.60
2023-03-25T09:36:00.329Z,21.82
2023-03-25T09:38:33.313Z,22.73
2023-03-25T09:41:26.986Z,22.50
2023-03-25T09:44:30.993Z,19.98
2023-03-25T09:47:04.196Z,21.40
2023-03-25T09:49:46.404Z,22.00
2023-03-25T09:52:23.895Z,22.25
2023-03-25T09:55:03.159Z,20.30
2023-03-25T09:57:41.834Z,22.17
2023-03-25T10:00:36.084Z,20.68
2023-03-25T10:03:23.349Z,21.57
2023-03-25T10:06:17.999Z,21.30
2023-03-25T10:09:27.508Z,21.02
2023-03-25T10:12:48.126Z,20.55
2023-03-25T10:15:40.567Z,22.25
2023-03-25T10:18:30.178Z,20.43
2023-03-25T10:21:28.423Z,21.73
2023-03-25T10:24:21.415Z,21.37
2023-03-25T10:27:42.090Z,22.45
2023-03-25T10:30:36.393Z,21.17
2023-03-25T10:35:52.133Z,22.00
2023-03-25T10:38:26.268Z,21.65
2023-03-25T10:41:33.044Z,21.85
2023-03-25T10:44:12.400Z,20.57
2023-03-25T10:47:19.989Z,22.25
2023-03-25T10:49:52.876Z,21.62
2023-03-25T10:52:25.338Z,20.50
2023-03-25T10:54:58.486Z,21.23
2023-03-25T10:57:31.845Z,20.80
2023-03-25T11:00:35.291Z,21.37
2023-03-25T11:03:13.095Z,20.12
2023-03-25T11:05:46.039Z,23.27
2023-03-25T11:08:24.419Z,21.52
2023-03-25T11:11:00.154Z,21.45
2023-03-25T11:13:33.181Z,21.85
2023-03-25T11:16:07.661Z,21.42
2023-03-25T11:18:43.396Z,21.48
2023-03-25T11:21:15.975Z,22.93
2023-03-25T11:23:51.706Z,21.48
2023-03-25T11:26:30.448Z,21.45
2023-03-25T11:29:12.321Z,21.37
2023-03-25T11:31:45.743Z,21.35
2023-03-25T11:34:24.292Z,22.82
2023-03-25T11:37:18.787Z,22.52
2023-03-25T11:39:56.193Z,21.73
2023-03-25T11:42:52.428Z,20.77
2023-03-25T11:45:54.963Z,21.82
2023-03-25T11:48:31.409Z,23.25
2023-03-25T11:51:05.250Z,23.07
2023-03-25T11:53:38.365Z,22.90
2023-03-25T11:56:13.274Z,23.22
2023-03-25T11:58:45.950Z,23.40
2023-03-25T12:01:31.979Z,21.80
2023-03-25T12:04:23.660Z,22.42
2023-03-25T12:07:02.385Z,22.20
2023-03-25T12:09:35.687Z,21.80
2023-03-25T12:12:16.862Z,22.75
2023-03-25T12:15:09.253Z,22.65
2023-03-25T12:18:19.869Z,24.65
2023-03-25T12:21:27.212Z,22.70
2023-03-25T12:24:36.852Z,23.12
2023-03-25T12:27:38.420Z,22.93
2023-03-25T12:30:38.441Z,21.60
2023-03-25T12:33:28.609Z,23.05
2023-03-25T12:36:32.764Z,24.27
2023-03-25T12:39:42.622Z,23.95
2023-03-25T12:42:31.601Z,22.67
2023-03-25T12:45:31.780Z,24.05
2023-03-25T12:48:18.792Z,24.32
2023-03-25T12:51:01.524Z,24.18
2023-03-25T12:54:00.044Z,22.82
2023-03-25T12:57:08.354Z,22.37
2023-03-25T12:59:59.193Z,23.18
2023-03-25T13:03:03.889Z,22.80
2023-03-25T13:06:18.445Z,23.38
2023-03-25T13:09:16.659Z,23.60
2023-03-25T13:12:00.570Z,22.90
2023-03-25T13:15:15.127Z,23.95
2023-03-25T13:18:09.008Z,22.70
2023-03-25T13:21:24.728Z,24.47
2023-03-25T13:24:07.384Z,24.23
2023-03-25T13:26:42.115Z,24.55
2023-03-25T13:29:45.946Z,24.63
2023-03-25T13:32:35.101Z,24.90
2023-03-25T13:35:38.863Z,25.23
2023-03-25T13:38:22.705Z,24.73
2023-03-25T13:41:34.164Z,25.52
2023-03-25T13:44:13.744Z,24.85
2023-03-25T13:46:56.155Z,25.72
2023-03-25T13:49:44.587Z,24.90
2023-03-25T13:52:18.376Z,25.05
2023-03-25T13:58:03.812Z,24.87
2023-03-25T14:00:41.872Z,24.05
2023-03-25T14:03:34.585Z,25.32
2023-03-25T14:06:51.925Z,24.23
2023-03-25T14:10:02.176Z,24.85
2023-03-25T14:12:43.937Z,24.63
2023-03-25T14:15:23.698Z,23.67
2023-03-25T14:17:57.720Z,26.27
2023-03-25T14:20:34.571Z,25.57
2023-03-25T14:23:20.118Z,27.95
2023-03-25T14:25:58.476Z,27.17
2023-03-25T14:28:43.223Z,28.98
2023-03-25T14:34:14.125Z,27.77
2023-03-25T14:36:52.085Z,32.08
2023-03-25T14:39:52.882Z,30.40
2023-03-25T14:42:42.803Z,28.90
2023-03-25T14:45:43.506Z,31.07
2023-03-25T14:48:26.231Z,33.13
2023-03-25T14:51:29.238Z,34.15
2023-03-25T14:54:26.378Z,33.98
2023-03-25T14:57:04.499Z,34.33
2023-03-25T14:59:46.909Z,32.30
2023-03-25T15:02:33.007Z,31.82
2023-03-25T15:05:28.386Z,31.25
2023-03-25T15:08:12.093Z,29.18
2023-03-25T15:10:52.844Z,28.63
2023-03-25T15:13:32.382Z,28.55
2023-03-25T15:16:08.908Z,28.23
2023-03-25T15:18:48.576Z,28.07
2023-03-25T15:21:26.696Z,28.45
2023-03-25T15:24:09.136Z,28.83
2023-03-25T15:26:44.881Z,31.30
2023-03-25T15:29:31.754Z,34.00
2023-03-25T15:32:37.049Z,33.53
2023-03-25T15:35:33.432Z,33.40
2023-03-25T15:38:47.154Z,33.67
2023-03-25T15:42:07.333Z,32.48
2023-03-25T15:45:19.673Z,33.38
2023-03-25T15:48:06.038Z,35.92
2023-03-25T15:51:07.250Z,34.23
2023-03-25T15:53:56.214Z,33.67
2023-03-25T15:56:48.134Z,33.90
2023-03-25T15:59:42.844Z,32.03
2023-03-25T16:04:53.864Z,30.77
2023-03-25T16:07:29.650Z,29.82
2023-03-25T16:10:34.739Z,31.25
2023-03-25T16:13:16.034Z,30.32
2023-03-25T16:15:49.167Z,29.02
2023-03-25T16:18:22.452Z,29.92
2023-03-25T16:21:00.568Z,30.85
2023-03-25T16:23:33.193Z,30.00
2023-03-25T16:26:26.191Z,30.20
2023-03-25T16:29:02.625Z,28.67
2023-03-25T16:31:37.931Z,29.25
2023-03-25T16:34:17.412Z,28.62
2023-03-25T16:36:51.851Z,30.10
2023-03-25T16:39:28.897Z,31.40
2023-03-25T16:42:08.310Z,30.65
2023-03-25T16:44:42.514Z,32.05
2023-03-25T16:47:15.964Z,32.60
2023-03-25T16:49:49.811Z,31.70
2023-03-25T16:52:28.654Z,30.90
2023-03-25T16:55:06.105Z,32.90
2023-03-25T16:57:41.164Z,33.45
2023-03-25T17:00:20.625Z,34.15
2023-03-25T17:02:54.209Z,33.18
2023-03-25T17:05:29.021Z,30.62
2023-03-25T17:08:08.322Z,31.87
2023-03-25T17:10:55.356Z,31.87
2023-03-25T17:13:33.100Z,34.78
2023-03-25T17:16:10.655Z,34.40
2023-03-25T17:18:44.207Z,34.60
2023-03-25T17:21:30.373Z,36.93
2023-03-25T17:24:24.416Z,40.23
2023-03-25T17:27:27.165Z,37.63
2023-03-25T17:30:01.691Z,39.67
2023-03-25T17:32:39.331Z,38.33
2023-03-25T17:35:28.211Z,37.50
2023-03-25T17:38:01.238Z,38.10
2023-03-25T17:40:34.031Z,38.23
2023-03-25T17:43:06.379Z,39.65
2023-03-25T17:45:39.348Z,39.27
2023-03-25T17:48:17.127Z,40.08
2023-03-25T17:50:55.679Z,39.58
2023-03-25T17:53:28.427Z,40.15
2023-03-25T17:56:02.856Z,40.80
2023-03-25T17:58:35.768Z,40.45
2023-03-25T18:01:12.786Z,38.48
2023-03-25T18:03:46.039Z,40.88
2023-03-25T18:06:19.357Z,41.50
2023-03-25T18:08:52.195Z,45.43
2023-03-25T18:11:24.777Z,45.58
2023-03-25T18:13:57.962Z,55.70
2023-03-25T18:16:31.039Z,42.50
2023-03-25T18:19:03.608Z,44.33
2023-03-25T18:21:37.651Z,41.50
2023-03-25T18:24:11.373Z,41.30
2023-03-25T18:26:44.380Z,41.73
2023-03-25T18:29:39.651Z,38.67
2023-03-25T18:32:12.733Z,36.83
2023-03-25T18:34:47.692Z,38.10
2023-03-25T18:37:20.368Z,39.63
2023-03-25T18:39:54.017Z,40.92
2023-03-25T18:42:26.785Z,40.95
2023-03-25T18:44:59.245Z,37.05
2023-03-25T18:47:32.861Z,38.45
2023-03-25T18:50:19.687Z,37.83
2023-03-25T18:52:53.174Z,37.70
2023-03-25T18:55:27.398Z,40.03
2023-03-25T18:58:00.412Z,40.78
2023-03-25T19:00:37.744Z,41.45
2023-03-25T19:03:11.547Z,40.40
2023-03-25T19:05:45.744Z,38.63
2023-03-25T19:08:40.507Z,43.83
2023-03-25T19:11:20.786Z,40.25
2023-03-25T19:13:48.195Z,41.73
2023-03-25T19:16:21.733Z,52.60
2023-03-25T19:18:54.839Z,39.30
2023-03-25T19:21:27.666Z,40.20
2023-03-25T19:24:01.045Z,41.35
2023-03-25T19:26:33.964Z,41.35
2023-03-25T19:29:08.904Z,41.10
2023-03-25T19:31:42.614Z,39.67
2023-03-25T19:34:16.823Z,38.28
2023-03-25T19:36:50.919Z,42.75
2023-03-25T19:39:23.956Z,39.63
2023-03-25T19:41:58.287Z,40.45
2023-03-25T19:44:33.470Z,39.45
2023-03-25T19:47:07.371Z,41.50
2023-03-25T19:49:40.533Z,40.83
2023-03-25T19:52:13.227Z,43.70
2023-03-25T19:54:47.102Z,43.52
2023-03-25T19:57:20.453Z,42.60
2023-03-25T19:59:53.707Z,44.20
2023-03-25T20:02:26.744Z,46.70
2023-03-25T20:04:59.239Z,43.00
2023-03-25T20:07:32.795Z,45.98
2023-03-25T20:10:19.006Z,47.25
2023-03-25T20:12:42.239Z,49.53
2023-03-25T20:15:16.630Z,47.48
2023-03-25T20:17:53.879Z,48.95
2023-03-25T20:20:27.718Z,46.73
2023-03-25T20:23:00.336Z,50.13
2023-03-25T20:25:33.335Z,46.42
2023-03-25T20:28:07.133Z,45.08
2023-03-25T20:30:39.676Z,45.28
2023-03-25T20:33:13.321Z,44.77
2023-03-25T20:35:46.815Z,45.85
2023-03-25T20:38:21.650Z,47.15
2023-03-25T20:43:31.542Z,42.85
2023-03-25T20:46:04.125Z,45.15
2023-03-25T20:48:38.877Z,44.20
2023-03-25T20:51:13.438Z,42.03
2023-03-25T20:53:47.271Z,44.05
2023-03-25T20:59:05.879Z,44.73
2023-03-25T21:01:38.960Z,46.63
2023-03-25T21:04:13.510Z,42.38
2023-03-25T21:06:46.956Z,45.05
2023-03-25T21:09:19.690Z,43.10
2023-03-25T21:11:52.238Z,44.33
2023-03-25T21:14:25.201Z,45.52
2023-03-25T21:16:58.310Z,48.17
2023-03-25T21:19:32.374Z,43.68
2023-03-25T21:22:04.848Z,44.83
2023-03-25T21:24:37.747Z,46.20
2023-03-25T21:27:10.465Z,50.88
2023-03-25T21:29:43.510Z,51.10
2023-03-25T21:34:50.102Z,46.53
2023-03-25T21:37:22.809Z,49.40
2023-03-25T21:39:57.092Z,45.03
2023-03-25T21:42:29.674Z,46.90
2023-03-25T21:45:02.744Z,48.25
2023-03-25T21:47:36.460Z,47.90
2023-03-25T21:50:11.202Z,40.12
2023-03-25T21:55:22.747Z,35.75
2023-03-25T21:57:56.650Z,36.15
2023-03-25T22:00:29.972Z,30.48
2023-03-25T22:03:03.278Z,26.57
2023-03-25T22:05:36.247Z,24.07
2023-03-25T22:08:09.586Z,23.75
2023-03-25T22:10:43.080Z,20.97
2023-03-25T22:13:15.977Z,20.62
2023-03-25T22:15:49.081Z,19.42
2023-03-25T22:18:21.874Z,18.05
2023-03-25T22:20:54.567Z,18.10
2023-03-25T22:23:27.372Z,17.67
2023-03-25T22:25:59.925Z,14.53
2023-03-25T22:28:33.104Z,13.78
2023-03-25T22:31:20.126Z,13.72
2023-03-25T22:33:55.855Z,13.90
2023-03-25T22:36:28.529Z,14.83
2023-03-25T22:39:01.523Z,14.07
2023-03-25T22:41:35.868Z,13.03
2023-03-25T22:44:08.275Z,14.35
2023-03-25T22:46:41.460Z,13.38
2023-03-25T22:49:14.498Z,13.72
2023-03-25T22:51:48.486Z,13.18
2023-03-25T22:54:21.147Z,12.58
2023-03-25T22:56:53.672Z,11.43
2023-03-25T22:59:26.457Z,12.05
2023-03-25T23:01:59.270Z,11.73
2023-03-25T23:04:32.671Z,11.40
2023-03-25T23:07:08.377Z,9.03
2023-03-25T23:09:44.226Z,9.95
2023-03-25T23:12:20.538Z,9.35
2023-03-25T23:14:56.163Z,9.28
2023-03-25T23:17:30.067Z,9.38
2023-03-25T23:20:03.241Z,9.50
2023-03-25T23:22:36.530Z,8.93
2023-03-25T23:25:10.107Z,8.93
2023-03-25T23:27:44.359Z,9.23
2023-03-25T23:30:17.407Z,9.35
2023-03-25T23:32:49.905Z,9.78
2023-03-25T23:35:23.269Z,11.20
2023-03-25T23:37:55.965Z,10.70
2023-03-25T23:40:28.529Z,10.35
2023-03-25T23:43:02.271Z,11.05
2023-03-25T23:45:37.095Z,11.85
2023-03-25T23:48:09.667Z,11.50
2023-03-25T23:50:43.838Z,10.60
2023-03-25T23:55:51.500Z,12.23
2023-03-25T23:58:25.596Z,11.90
